Time;durP1;ratioP1;P1;durP2;ratioP2;P2;SDS_P1;SDS_P2;PMS_P1;PMS_P2;Temp;Humidity;BMP_temperature;BMP_pressure;BME280_temperature;BME280_humidity;BME280_pressure;Samples;Min_cycle;Max_cycle;Signal;HPM_P1;HPM_P2
2023/06/03 00:01:28;;;;;;;2.33;1.00;;;;;;;9.82;47.95;101592.63;5049823;28;20206;-69
2023/06/03 00:03:55;;;;;;;2.43;1.10;;;;;;;9.79;46.56;101582.69;5050405;28;20413;-69
2023/06/03 00:06:21;;;;;;;2.37;1.00;;;;;;;9.76;47.06;101593.81;5049684;28;20206;-69
2023/06/03 00:08:48;;;;;;;1.70;1.00;;;;;;;9.72;47.52;101588.34;5051513;28;20211;-69
2023/06/03 00:11:14;;;;;;;2.50;1.20;;;;;;;9.68;46.18;101582.09;5055048;28;20237;-69
2023/06/03 00:13:42;;;;;;;1.93;1.50;;;;;;;9.66;48.14;101586.88;5039750;28;20653;-69
2023/06/03 00:16:08;;;;;;;3.37;1.30;;;;;;;9.63;47.76;101589.34;5049832;28;20775;-69
2023/06/03 00:18:35;;;;;;;1.83;1.10;;;;;;;9.60;48.11;101584.63;5052790;28;20224;-69
2023/06/03 00:21:02;;;;;;;1.67;1.30;;;;;;;9.56;48.43;101581.03;5060692;28;20649;-69
2023/06/03 00:23:28;;;;;;;2.83;1.30;;;;;;;9.51;47.64;101581.91;5056919;28;20241;-69
2023/06/03 00:25:55;;;;;;;2.93;1.20;;;;;;;9.47;47.64;101573.03;5069605;28;20221;-69
2023/06/03 00:28:21;;;;;;;1.00;0.80;;;;;;;9.46;50.02;101581.22;5069698;28;20214;-69
2023/06/03 00:30:49;;;;;;;3.33;1.30;;;;;;;9.41;48.58;101576.03;5040678;28;20207;-69
2023/06/03 00:33:15;;;;;;;1.93;1.00;;;;;;;9.38;49.82;101587.94;5031579;28;20408;-69
2023/06/03 00:35:41;;;;;;;2.73;1.00;;;;;;;9.35;48.12;101588.56;5049641;28;20207;-69
2023/06/03 00:38:08;;;;;;;1.23;1.00;;;;;;;9.33;48.44;101588.06;5032086;28;20206;-69
2023/06/03 00:40:34;;;;;;;2.93;1.00;;;;;;;9.32;48.40;101593.63;5031505;28;20191;-69
2023/06/03 00:43:03;;;;;;;1.70;1.00;;;;;;;9.30;49.37;101596.56;5040865;28;20702;-69
2023/06/03 00:45:30;;;;;;;2.23;1.20;;;;;;;9.28;49.15;101597.91;5032002;28;20191;-69
2023/06/03 00:47:58;;;;;;;2.10;1.20;;;;;;;9.27;49.52;101601.63;5043442;28;20194;-69
2023/06/03 00:50:25;;;;;;;2.60;1.10;;;;;;;9.24;49.56;101603.00;5075643;28;20218;-69
2023/06/03 00:52:52;;;;;;;1.50;1.20;;;;;;;9.26;49.98;101597.44;5050831;28;20234;-69
2023/06/03 00:55:20;;;;;;;1.30;0.97;;;;;;;9.28;48.98;101614.53;5037574;28;20203;-69
2023/06/03 00:57:46;;;;;;;2.27;1.00;;;;;;;9.28;49.10;101611.88;5065546;28;20207;-69
2023/06/03 01:00:13;;;;;;;2.63;1.30;;;;;;;9.28;49.37;101611.09;5047105;28;20194;-69
2023/06/03 01:02:43;;;;;;;2.63;1.13;;;;;;;9.28;49.04;101611.09;5058763;28;20237;-69
2023/06/03 01:05:12;;;;;;;1.20;1.00;;;;;;;9.28;48.71;101611.88;5046288;28;20204;-69
2023/06/03 01:07:48;;;;;;;2.47;1.33;;;;;;;9.30;49.22;101611.56;5048065;28;20199;-69
2023/06/03 01:10:22;;;;;;;1.93;1.27;;;;;;;9.30;49.16;101615.00;5049881;28;20191;-69
2023/06/03 01:12:57;;;;;;;1.40;0.90;;;;;;;9.29;49.42;101607.38;5047836;28;20242;-69
2023/06/03 01:15:27;;;;;;;2.13;1.07;;;;;;;9.26;48.69;101606.09;5057293;28;20183;-69
2023/06/03 01:17:58;;;;;;;1.90;1.00;;;;;;;9.24;49.53;101607.47;5049921;28;20581;-69
2023/06/03 01:20:28;;;;;;;1.43;0.93;;;;;;;9.22;49.68;101607.00;5037704;28;20301;-69
2023/06/03 01:23:00;;;;;;;2.37;1.10;;;;;;;9.19;48.56;101607.56;5060095;28;20617;-69
2023/06/03 01:25:28;;;;;;;1.90;1.13;;;;;;;9.17;48.79;101607.06;5058857;28;20214;-69
2023/06/03 01:27:57;;;;;;;7.50;1.07;;;;;;;9.14;50.59;101610.28;5058487;28;20237;-69
2023/06/03 01:30:23;;;;;;;1.30;0.90;;;;;;;9.11;50.73;101609.00;5072760;28;20202;-69
2023/06/03 01:32:50;;;;;;;2.40;0.93;;;;;;;9.07;49.54;101605.38;5035335;28;20361;-69
2023/06/03 01:35:18;;;;;;;2.37;1.10;;;;;;;9.04;50.73;101611.25;5034980;28;20821;-69
2023/06/03 01:37:45;;;;;;;1.97;1.13;;;;;;;9.01;49.73;101611.81;5041536;28;20219;-69
2023/06/03 01:40:13;;;;;;;1.83;1.00;;;;;;;9.00;49.76;101612.91;5049689;28;20215;-69
2023/06/03 01:42:41;;;;;;;5.67;1.30;;;;;;;8.97;50.59;101612.69;5026406;28;20716;-69
2023/06/03 01:45:08;;;;;;;1.33;1.07;;;;;;;8.94;50.57;101614.06;5042909;28;20286;-69
2023/06/03 01:47:35;;;;;;;3.07;1.20;;;;;;;8.90;49.91;101610.44;5072530;28;20585;-69
2023/06/03 01:50:01;;;;;;;2.77;0.97;;;;;;;8.88;49.28;101617.06;5034823;28;20261;-70
2023/06/03 01:52:29;;;;;;;2.37;1.20;;;;;;;8.86;50.13;101608.66;5079898;28;20230;-69
2023/06/03 01:54:56;;;;;;;2.77;1.37;;;;;;;8.83;49.75;101609.22;5061309;28;20192;-69
2023/06/03 01:57:23;;;;;;;1.23;1.13;;;;;;;8.81;51.44;101617.41;5042484;28;20223;-69
2023/06/03 01:59:52;;;;;;;3.77;1.30;;;;;;;8.78;50.87;101618.00;5035019;28;20539;-69
2023/06/03 02:02:18;;;;;;;4.00;1.40;;;;;;;8.76;51.81;101617.50;5066185;28;20211;-69
2023/06/03 02:04:45;;;;;;;4.33;1.50;;;;;;;8.74;50.88;101616.22;5039437;28;20199;-69
2023/06/03 02:07:12;;;;;;;1.20;0.90;;;;;;;8.72;51.15;101624.44;5038732;28;20206;-69
2023/06/03 02:09:38;;;;;;;3.37;1.20;;;;;;;8.68;52.34;101618.16;5047258;28;20199;-69
2023/06/03 02:12:05;;;;;;;2.53;1.43;;;;;;;8.66;51.58;101616.88;5062222;28;20250;-69
2023/06/03 02:14:32;;;;;;;2.70;1.17;;;;;;;8.63;52.12;101628.78;5039270;28;20206;-69
2023/06/03 02:17:00;;;;;;;2.30;1.17;;;;;;;8.61;51.12;101623.03;5055753;28;20208;-69
2023/06/03 02:19:27;;;;;;;1.33;1.20;;;;;;;8.56;50.41;101623.09;5033967;28;20214;-69
2023/06/03 02:21:56;;;;;;;1.40;1.27;;;;;;;8.53;51.47;101626.28;5038335;28;20222;-69
2023/06/03 02:24:23;;;;;;;1.80;1.10;;;;;;;8.49;51.51;101622.66;5036822;28;20200;-69
2023/06/03 02:26:50;;;;;;;2.07;1.27;;;;;;;8.47;52.25;101637.97;5033376;28;20206;-69
2023/06/03 02:29:18;;;;;;;4.20;1.50;;;;;;;8.43;52.79;101620.41;5048339;28;20297;-69
2023/06/03 02:31:45;;;;;;;2.17;1.30;;;;;;;8.41;52.75;101636.47;5052545;28;20591;-69
2023/06/03 02:34:13;;;;;;;1.97;1.30;;;;;;;8.38;52.95;101631.00;5040041;28;20729;-69
2023/06/03 02:36:39;;;;;;;1.87;1.30;;;;;;;8.36;54.13;101638.38;5051476;28;20187;-69
2023/06/03 02:39:07;;;;;;;3.33;1.60;;;;;;;8.30;51.49;101632.44;5046264;28;20211;-69
2023/06/03 02:41:33;;;;;;;2.27;1.30;;;;;;;8.27;55.04;101640.88;5048067;28;20231;-69
2023/06/03 02:44:03;;;;;;;4.50;1.20;;;;;;;8.25;55.25;101642.22;5041674;28;20290;-69
2023/06/03 02:46:29;;;;;;;1.43;1.30;;;;;;;8.21;53.87;101635.97;5071609;28;20198;-69
2023/06/03 02:48:58;;;;;;;2.40;1.20;;;;;;;8.19;56.74;101643.34;5034231;28;20290;-69
2023/06/03 02:51:26;;;;;;;1.57;1.30;;;;;;;8.15;55.04;101643.13;5066173;28;20195;-69
2023/06/03 02:53:53;;;;;;;1.87;1.57;;;;;;;8.12;55.97;101642.91;5067015;28;20621;-69
2023/06/03 02:56:19;;;;;;;2.97;1.60;;;;;;;8.07;56.51;101649.00;5032991;28;20199;-69
2023/06/03 02:58:46;;;;;;;2.00;1.27;;;;;;;8.03;55.18;101639.34;5032640;28;20572;-69
2023/06/03 03:01:12;;;;;;;4.10;1.53;;;;;;;8.00;57.31;101642.53;5033489;28;20215;-69
2023/06/03 03:03:40;;;;;;;1.93;1.30;;;;;;;7.98;54.84;101642.03;5066686;28;20220;-69
2023/06/03 03:06:08;;;;;;;2.27;1.30;;;;;;;7.95;57.11;101645.22;5070849;28;20688;-69
2023/06/03 03:08:36;;;;;;;3.30;1.10;;;;;;;7.92;55.47;101643.94;5059419;28;20206;-69
2023/06/03 03:11:02;;;;;;;2.37;1.23;;;;;;;7.92;57.72;101645.78;5068867;28;20187;-69
2023/06/03 03:13:29;;;;;;;1.87;1.70;;;;;;;7.93;60.45;101645.50;5035741;28;20719;-69
2023/06/03 03:15:55;;;;;;;2.07;1.50;;;;;;;7.88;55.36;101650.81;5046398;28;20197;-69
2023/06/03 03:18:23;;;;;;;3.20;1.40;;;;;;;7.89;59.41;101655.03;5054440;28;20211;-69
2023/06/03 03:20:50;;;;;;;3.63;1.70;;;;;;;7.87;56.65;101654.50;5040637;28;20252;-69
2023/06/03 03:23:17;;;;;;;1.80;1.10;;;;;;;7.91;61.13;101657.34;5033188;28;20219;-69
2023/06/03 03:25:45;;;;;;;3.33;1.30;;;;;;;7.88;55.77;101655.31;5068148;28;20198;-70
2023/06/03 03:28:12;;;;;;;3.00;1.57;;;;;;;7.87;55.91;101651.88;5052364;28;20191;-69
2023/06/03 03:30:41;;;;;;;3.40;1.70;;;;;;;7.87;55.00;101654.50;5049929;28;20210;-69
2023/06/03 03:33:08;;;;;;;3.93;1.57;;;;;;;7.91;56.63;101652.09;5063789;28;20222;-69
2023/06/03 03:35:39;;;;;;;3.50;1.53;;;;;;;7.93;54.46;101655.25;5059912;28;20194;-69
2023/06/03 03:38:07;;;;;;;3.07;1.60;;;;;;;7.95;54.86;101664.41;5052159;28;20230;-69
2023/06/03 03:40:37;;;;;;;1.57;1.30;;;;;;;7.99;56.12;101659.38;5052568;28;20195;-69
2023/06/03 03:43:10;;;;;;;1.87;1.40;;;;;;;8.03;55.60;101666.41;5030466;28;20220;-69
2023/06/03 03:45:37;;;;;;;2.77;1.53;;;;;;;8.06;54.39;101668.50;5036611;28;20666;-69
2023/06/03 03:48:14;;;;;;;3.47;1.50;;;;;;;8.10;54.84;101666.88;5039658;28;20211;-69
2023/06/03 03:50:44;;;;;;;5.27;1.40;;;;;;;8.16;55.09;101678.09;5049226;28;20252;-69
2023/06/03 03:53:14;;;;;;;2.87;1.30;;;;;;;8.21;54.30;101675.44;5032646;28;20222;-69
2023/06/03 03:55:42;;;;;;;4.13;1.70;;;;;;;8.25;54.43;101677.22;5045923;28;20255;-69
2023/06/03 03:58:35;;;;;;;1.50;1.30;;;;;;;8.34;54.47;101682.63;5052252;28;20245;-69
2023/06/03 04:01:09;;;;;;;2.23;1.40;;;;;;;8.38;55.74;101681.00;5064479;28;20210;-70
2023/06/03 04:03:40;;;;;;;3.47;1.40;;;;;;;8.44;54.14;101678.00;5041723;28;20223;-69
2023/06/03 04:06:08;;;;;;;2.73;1.50;;;;;;;8.49;54.14;101691.09;5065620;28;20674;-70
2023/06/03 04:08:40;;;;;;;2.53;1.57;;;;;;;8.55;54.44;101689.97;5061802;28;20211;-70
2023/06/03 04:11:08;;;;;;;3.13;1.70;;;;;;;8.62;56.04;101689.59;5053814;28;20202;-70
2023/06/03 04:13:40;;;;;;;4.73;1.70;;;;;;;8.67;54.36;101690.34;5066605;28;20630;-69
2023/06/03 04:16:10;;;;;;;2.87;1.60;;;;;;;8.75;55.41;101699.44;5048743;28;20245;-70
2023/06/03 04:18:41;;;;;;;3.00;1.50;;;;;;;8.81;53.90;101699.06;5042286;28;20215;-70
2023/06/03 04:21:13;;;;;;;2.80;1.47;;;;;;;8.87;54.01;101697.94;5057370;28;20199;-70
2023/06/03 04:23:41;;;;;;;2.13;1.50;;;;;;;8.94;53.27;101700.19;5043300;28;20249;-70
2023/06/03 04:26:09;;;;;;;4.73;1.90;;;;;;;9.02;53.01;101699.53;5037950;28;20202;-70
2023/06/03 04:28:41;;;;;;;2.60;1.60;;;;;;;9.09;53.46;101700.75;5048669;28;20203;-70
2023/06/03 04:31:07;;;;;;;3.20;1.97;;;;;;;9.17;53.01;101699.31;5048136;28;20201;-69
2023/06/03 04:33:34;;;;;;;2.93;1.43;;;;;;;9.23;52.40;101698.94;5035053;28;20321;-70
2023/06/03 04:36:01;;;;;;;2.30;1.80;;;;;;;9.32;52.70;101699.06;5042062;28;20198;-69
2023/06/03 04:38:28;;;;;;;2.93;2.10;;;;;;;9.39;52.22;101707.38;5043433;28;20214;-70
2023/06/03 04:40:55;;;;;;;2.00;1.60;;;;;;;9.46;51.79;101698.00;5032850;28;20721;-70
2023/06/03 04:43:22;;;;;;;5.37;2.10;;;;;;;9.54;51.83;101701.81;5045036;28;20272;-70
2023/06/03 04:45:54;;;;;;;2.37;1.80;;;;;;;9.63;52.25;101697.44;5041727;28;20199;-70
2023/06/03 04:48:22;;;;;;;3.43;1.87;;;;;;;9.70;51.17;101695.19;5031390;28;20201;-70
2023/06/03 04:50:49;;;;;;;3.67;1.80;;;;;;;9.79;51.79;101707.41;5043061;28;20265;-69
2023/06/03 04:53:16;;;;;;;3.47;1.83;;;;;;;9.86;51.34;101707.81;5034623;28;20211;-70
2023/06/03 04:55:44;;;;;;;5.40;2.10;;;;;;;9.96;50.87;101702.34;5035177;28;20195;-70
2023/06/03 04:58:19;;;;;;;2.20;1.83;;;;;;;10.02;50.74;101703.03;5036585;28;20582;-70
2023/06/03 05:00:49;;;;;;;6.70;2.10;;;;;;;10.11;50.89;101711.84;5071298;28;20199;-69
2023/06/03 05:03:17;;;;;;;6.57;1.80;;;;;;;10.19;50.28;101706.66;5044349;28;20619;-70
2023/06/03 05:05:44;;;;;;;4.33;1.90;;;;;;;10.28;50.01;101704.91;5053929;28;20245;-70
2023/06/03 05:08:13;;;;;;;4.27;1.70;;;;;;;10.36;49.98;101703.41;5046347;28;20196;-69
2023/06/03 05:10:40;;;;;;;4.47;1.60;;;;;;;10.44;49.65;101705.34;5044537;28;20237;-70
2023/06/03 05:13:07;;;;;;;3.93;1.57;;;;;;;10.54;50.06;101707.75;5055242;28;20646;-70
2023/06/03 05:15:34;;;;;;;2.97;1.53;;;;;;;10.64;49.72;101715.47;5038030;28;20731;-70
2023/06/03 05:18:02;;;;;;;2.77;1.67;;;;;;;10.75;51.27;101711.53;5058323;28;20223;-70
2023/06/03 05:20:32;;;;;;;6.83;1.90;;;;;;;10.84;50.82;101721.09;5052123;28;20773;-70
2023/06/03 05:22:59;;;;;;;3.90;1.60;;;;;;;10.92;49.26;101712.44;5063534;28;20699;-70
2023/06/03 05:25:25;;;;;;;4.43;1.70;;;;;;;11.02;48.57;101712.19;5035694;28;20221;-70
2023/06/03 05:27:53;;;;;;;2.90;1.87;;;;;;;11.12;48.29;101711.19;5039642;28;20209;-70
2023/06/03 05:30:21;;;;;;;2.43;1.43;;;;;;;11.21;48.31;101719.94;5070674;28;20212;-70
2023/06/03 05:32:47;;;;;;;2.90;1.80;;;;;;;11.30;48.00;101715.50;5049135;28;20259;-70
2023/06/03 05:35:15;;;;;;;3.30;1.80;;;;;;;11.39;48.99;101714.44;5034963;28;20219;-70
2023/06/03 05:37:42;;;;;;;2.87;1.67;;;;;;;11.46;48.02;101717.47;5048000;28;20208;-70
2023/06/03 05:40:10;;;;;;;3.87;1.40;;;;;;;11.56;48.78;101713.78;5060721;28;20208;-70
2023/06/03 05:42:39;;;;;;;4.17;1.70;;;;;;;11.63;47.97;101714.94;5042423;28;20250;-70
2023/06/03 05:45:07;;;;;;;2.30;1.80;;;;;;;11.72;46.95;101707.81;5062186;28;20228;-69
2023/06/03 05:47:33;;;;;;;2.93;1.50;;;;;;;11.83;47.73;101714.41;5056916;28;20253;-70
2023/06/03 05:49:59;;;;;;;2.83;1.70;;;;;;;11.90;46.60;101708.66;5044618;28;20669;-70
2023/06/03 05:52:27;;;;;;;3.23;1.53;;;;;;;12.01;45.24;101713.34;5033517;28;20278;-70
2023/06/03 05:54:54;;;;;;;3.83;1.40;;;;;;;12.10;45.86;101724.75;5044640;28;20199;-70
2023/06/03 05:57:21;;;;;;;2.57;1.30;;;;;;;12.17;46.28;101719.78;5045714;28;20201;-70
2023/06/03 05:59:50;;;;;;;3.50;1.50;;;;;;;12.25;44.24;101721.69;5029740;28;20247;-70
2023/06/03 06:02:18;;;;;;;2.33;1.50;;;;;;;12.33;44.38;101723.59;5049511;28;20222;-69
2023/06/03 06:04:45;;;;;;;1.60;1.23;;;;;;;12.41;44.18;101728.09;5040419;28;20576;-69
2023/06/03 06:07:11;;;;;;;2.30;1.43;;;;;;;12.49;43.74;101721.25;5033770;28;20218;-70
2023/06/03 06:09:39;;;;;;;5.83;1.60;;;;;;;12.55;45.00;101720.81;5039725;28;20203;-70
2023/06/03 06:12:06;;;;;;;3.60;1.50;;;;;;;12.62;44.31;101723.75;5069757;28;20280;-70
2023/06/03 06:14:33;;;;;;;2.40;1.30;;;;;;;12.72;44.39;101725.31;5058637;28;20210;-70
2023/06/03 06:16:59;;;;;;;1.93;1.30;;;;;;;12.80;44.08;101730.63;5041321;28;20204;-70
2023/06/03 06:19:26;;;;;;;1.77;1.13;;;;;;;12.88;43.90;101727.19;5055461;28;20226;-70
2023/06/03 06:21:55;;;;;;;1.80;1.00;;;;;;;12.98;43.85;101724.25;5034319;28;20244;-70
2023/06/03 06:24:21;;;;;;;5.50;1.53;;;;;;;13.08;43.38;101718.63;5030124;28;20208;-70
2023/06/03 06:26:50;;;;;;;3.37;1.20;;;;;;;13.18;43.33;101728.13;5039737;28;20207;-70
2023/06/03 06:29:18;;;;;;;2.50;1.40;;;;;;;13.26;44.34;101725.47;5043162;28;20191;-70
2023/06/03 06:31:44;;;;;;;2.70;1.10;;;;;;;13.37;43.52;101717.97;5037325;28;20585;-69
2023/06/03 06:34:16;;;;;;;3.23;1.20;;;;;;;13.46;42.93;101727.44;5032154;28;20232;-70
2023/06/03 06:36:47;;;;;;;1.77;1.10;;;;;;;13.56;42.68;101724.44;5034335;28;20216;-70
2023/06/03 06:39:46;;;;;;;5.03;1.20;;;;;;;13.68;40.62;101729.09;5057645;28;20219;-70
2023/06/03 06:42:29;;;;;;;2.50;1.27;;;;;;;13.76;42.05;101734.38;5064910;28;20629;-70
2023/06/03 06:44:59;;;;;;;2.67;1.57;;;;;;;13.84;41.66;101736.22;5031408;28;20192;-70
2023/06/03 06:47:28;;;;;;;5.80;1.30;;;;;;;13.92;41.54;101724.00;5036549;28;20208;-70
2023/06/03 06:49:57;;;;;;;2.43;1.10;;;;;;;13.98;39.85;101728.81;5035915;28;20231;-70
2023/06/03 06:52:26;;;;;;;2.60;1.13;;;;;;;14.05;40.74;101734.41;5039571;28;20221;-70
2023/06/03 06:54:55;;;;;;;3.23;1.07;;;;;;;14.14;41.34;101737.03;5032453;28;20621;-70
2023/06/03 06:57:25;;;;;;;2.63;1.10;;;;;;;14.22;41.05;101733.56;5049502;28;20200;-70
2023/06/03 06:59:54;;;;;;;1.57;1.00;;;;;;;14.29;40.35;101737.25;5033798;28;20218;-70
2023/06/03 07:02:21;;;;;;;2.33;1.00;;;;;;;14.34;40.65;101749.59;5069325;28;20292;-70
2023/06/03 07:04:49;;;;;;;2.50;1.10;;;;;;;14.41;40.28;101736.56;5033274;28;20284;-70
2023/06/03 07:07:15;;;;;;;2.00;1.10;;;;;;;14.50;40.64;101738.06;5052142;28;20659;-70
2023/06/03 07:09:42;;;;;;;2.60;1.00;;;;;;;14.62;39.89;101740.03;5047469;28;20185;-70
2023/06/03 07:12:09;;;;;;;2.60;1.00;;;;;;;14.70;40.61;101745.28;5035133;28;20222;-70
2023/06/03 07:14:38;;;;;;;3.17;1.13;;;;;;;14.81;39.67;101740.34;5031543;28;20243;-70
2023/06/03 07:17:06;;;;;;;2.60;0.80;;;;;;;14.89;39.90;101734.16;5062992;28;20200;-70
2023/06/03 07:19:36;;;;;;;3.10;1.17;;;;;;;14.98;38.88;101727.69;5037375;28;20207;-70
2023/06/03 07:22:04;;;;;;;1.27;0.90;;;;;;;15.09;39.71;101733.38;5071732;28;20685;-70
2023/06/03 07:24:33;;;;;;;4.17;1.07;;;;;;;15.18;39.80;101729.53;5033443;28;20699;-70
2023/06/03 07:27:00;;;;;;;2.80;1.13;;;;;;;15.31;40.25;101736.44;5037958;28;20219;-71
2023/06/03 07:29:28;;;;;;;5.60;1.20;;;;;;;15.41;39.56;101738.72;5033544;28;20666;-70
2023/06/03 07:31:56;;;;;;;6.27;1.20;;;;;;;15.51;39.92;101742.84;5039024;28;20301;-70
2023/06/03 07:34:23;;;;;;;2.20;1.57;;;;;;;15.61;38.41;101748.53;5037815;28;20280;-70
2023/06/03 07:36:52;;;;;;;3.03;0.87;;;;;;;15.69;38.25;101747.63;5065836;28;20207;-70
2023/06/03 07:39:21;;;;;;;1.30;0.80;;;;;;;15.78;37.29;101744.91;5028959;28;20210;-70
2023/06/03 07:41:52;;;;;;;4.47;0.90;;;;;;;15.83;36.65;101744.69;5064006;28;20227;-70
2023/06/03 07:44:41;;;;;;;2.67;0.87;;;;;;;15.92;36.61;101742.66;5031814;28;20207;-70
2023/06/03 07:47:09;;;;;;;1.80;1.03;;;;;;;16.00;37.07;101742.56;5052834;28;20670;-70
2023/06/03 07:49:36;;;;;;;2.17;0.80;;;;;;;16.06;36.23;101749.25;5053571;28;20192;-70
2023/06/03 07:52:02;;;;;;;1.60;0.90;;;;;;;16.13;36.11;101740.66;5059033;28;20595;-70
2023/06/03 07:54:29;;;;;;;1.30;0.80;;;;;;;16.22;36.67;101739.47;5056007;28;20217;-70
2023/06/03 07:56:57;;;;;;;0.80;0.70;;;;;;;16.32;37.23;101740.88;5054429;28;20204;-70
2023/06/03 07:59:24;;;;;;;2.37;0.80;;;;;;;16.41;36.33;101744.22;5046766;28;20219;-70
2023/06/03 08:01:51;;;;;;;4.27;0.90;;;;;;;16.50;36.30;101744.91;5057824;28;20219;-70
2023/06/03 08:04:31;;;;;;;1.77;1.27;;;;;;;16.58;36.96;101743.97;5054194;28;20818;-70
2023/06/03 08:06:59;;;;;;;5.90;1.00;;;;;;;16.66;36.92;101746.50;5051185;28;20663;-70
2023/06/03 08:09:28;;;;;;;1.43;0.80;;;;;;;16.75;34.82;101752.50;5051625;28;20605;-70
2023/06/03 08:11:54;;;;;;;0.77;0.77;;;;;;;16.85;34.79;101743.22;5050649;28;20217;-70
2023/06/03 08:14:21;;;;;;;2.40;0.80;;;;;;;16.94;34.71;101744.66;5054905;28;20204;-70
2023/06/03 08:16:48;;;;;;;2.87;0.90;;;;;;;17.01;35.47;101734.16;5050569;28;20255;-70
2023/06/03 08:19:17;;;;;;;2.70;0.53;;;;;;;17.09;34.58;101735.91;5049343;28;20220;-70
2023/06/03 08:21:45;;;;;;;1.57;0.70;;;;;;;17.19;35.11;101745.31;5048442;28;20212;-70
2023/06/03 08:24:12;;;;;;;3.40;0.70;;;;;;;17.28;34.60;101745.94;5059309;28;20247;-70
2023/06/03 08:26:39;;;;;;;2.00;0.70;;;;;;;17.35;34.33;101740.78;5065969;28;20305;-70
2023/06/03 08:29:05;;;;;;;1.23;0.70;;;;;;;17.38;33.93;101740.09;5038066;28;20197;-70
2023/06/03 08:31:33;;;;;;;1.63;0.70;;;;;;;17.43;32.64;101742.56;5057742;28;20194;-70
2023/06/03 08:33:59;;;;;;;1.83;0.77;;;;;;;17.47;33.60;101746.06;5051635;28;20206;-70
2023/06/03 08:36:26;;;;;;;1.70;0.87;;;;;;;17.56;34.36;101744.81;5059798;28;20216;-70
2023/06/03 08:38:54;;;;;;;1.10;0.80;;;;;;;17.65;34.17;101742.72;5053860;28;20214;-70
2023/06/03 08:41:21;;;;;;;2.07;0.80;;;;;;;17.70;32.31;101742.47;5064205;28;20210;-70
2023/06/03 08:43:50;;;;;;;2.57;0.70;;;;;;;17.72;33.37;101729.56;5071782;28;20313;-70
2023/06/03 08:46:23;;;;;;;1.13;0.83;;;;;;;17.80;33.18;101733.94;5055907;28;20200;-70
2023/06/03 08:48:57;;;;;;;0.87;0.70;;;;;;;17.89;33.48;101733.75;5053456;28;20293;-70
2023/06/03 08:51:24;;;;;;;1.60;0.80;;;;;;;17.97;33.63;101735.47;5046317;28;20199;-70
2023/06/03 08:53:52;;;;;;;1.30;0.60;;;;;;;18.02;34.25;101738.69;5057910;28;20230;-70
2023/06/03 08:56:20;;;;;;;3.77;1.43;;;;;;;18.07;31.63;101740.31;5052948;28;20551;-70
2023/06/03 08:58:49;;;;;;;3.63;0.90;;;;;;;18.06;32.22;101739.50;5056280;28;20236;-70
2023/06/03 09:01:17;;;;;;;0.83;0.73;;;;;;;18.08;31.91;101731.94;5051639;28;20195;-70
2023/06/03 09:03:44;;;;;;;3.70;1.20;;;;;;;18.10;32.01;101729.69;5041537;28;20223;-70
2023/06/03 09:06:12;;;;;;;1.70;0.90;;;;;;;18.13;32.74;101725.53;5040896;28;20298;-70
2023/06/03 09:08:40;;;;;;;1.13;0.70;;;;;;;18.16;32.32;101727.53;5064686;28;20195;-70
2023/06/03 09:11:10;;;;;;;1.60;0.70;;;;;;;18.23;32.62;101716.97;5059435;28;20205;-70
2023/06/03 09:13:39;;;;;;;1.80;0.93;;;;;;;18.27;31.33;101717.84;5068614;28;20227;-70
2023/06/03 09:16:06;;;;;;;0.77;0.60;;;;;;;18.28;31.55;101730.88;5059834;28;20205;-70
2023/06/03 09:18:33;;;;;;;2.20;0.70;;;;;;;18.30;31.05;101720.59;5064561;28;20214;-70
2023/06/03 09:21:00;;;;;;;3.47;0.80;;;;;;;18.31;30.86;101721.38;5057722;28;20207;-70
2023/06/03 09:23:27;;;;;;;2.23;0.80;;;;;;;18.35;31.60;101722.22;5054224;28;20228;-70
2023/06/03 09:25:54;;;;;;;2.27;1.63;;;;;;;18.37;30.13;101709.31;5038552;28;20210;-70
2023/06/03 09:28:21;;;;;;;0.97;0.70;;;;;;;18.40;30.84;101717.41;5057077;28;20206;-70
2023/06/03 09:30:48;;;;;;;1.33;0.77;;;;;;;18.43;31.08;101716.69;5036179;28;20785;-70
2023/06/03 09:33:16;;;;;;;1.47;0.60;;;;;;;18.48;30.68;101712.97;5061281;28;20607;-70
2023/06/03 09:35:42;;;;;;;1.40;0.97;;;;;;;18.44;30.29;101702.19;5061411;28;20206;-70
2023/06/03 09:38:09;;;;;;;2.83;0.90;;;;;;;18.51;30.13;101707.69;5053901;28;20217;-70
2023/06/03 09:40:35;;;;;;;1.17;0.70;;;;;;;18.52;31.07;101695.09;5054194;28;20211;-70
2023/06/03 09:43:11;;;;;;;3.93;1.00;;;;;;;18.55;31.32;101692.50;5049475;28;20234;-70
2023/06/03 09:45:38;;;;;;;2.47;0.90;;;;;;;18.59;31.23;101698.69;5040663;28;20202;-70
2023/06/03 09:48:05;;;;;;;5.30;1.37;;;;;;;18.59;30.81;101700.59;5052470;28;20203;-70
2023/06/03 09:50:32;;;;;;;1.20;0.90;;;;;;;18.60;31.04;101707.47;5056075;28;20195;-70
2023/06/03 09:53:01;;;;;;;4.07;1.00;;;;;;;18.64;31.39;101708.34;5052162;28;20226;-70
2023/06/03 09:55:32;;;;;;;2.07;1.10;;;;;;;18.69;30.27;101698.09;5037062;28;20203;-70
2023/06/03 09:58:03;;;;;;;1.43;0.77;;;;;;;18.78;30.37;101697.91;5054054;28;20236;-70
2023/06/03 10:00:31;;;;;;;2.50;1.40;;;;;;;18.78;31.30;101698.69;5051554;28;20246;-70
2023/06/03 10:03:08;;;;;;;1.30;0.67;;;;;;;18.77;29.62;101704.38;5049061;28;20289;-70
2023/06/03 10:05:35;;;;;;;3.87;1.13;;;;;;;18.80;29.58;101699.13;5051140;28;20209;-70
2023/06/03 10:08:02;;;;;;;1.30;0.83;;;;;;;18.78;30.31;101697.91;5050570;28;20598;-70
2023/06/03 10:10:29;;;;;;;4.87;2.60;;;;;;;18.73;28.69;101690.94;5055079;28;20646;-70
2023/06/03 10:12:56;;;;;;;1.73;0.80;;;;;;;18.74;30.67;101703.19;5055792;28;20306;-70
2023/06/03 10:15:41;;;;;;;1.33;0.77;;;;;;;18.83;29.73;101705.66;5053953;28;20204;-70
2023/06/03 10:18:08;;;;;;;2.67;1.00;;;;;;;18.88;29.98;101700.78;5054563;28;20900;-70
2023/06/03 10:20:36;;;;;;;1.53;0.97;;;;;;;18.97;30.48;101696.00;5057396;28;20218;-70
2023/06/03 10:23:04;;;;;;;2.70;1.00;;;;;;;19.04;28.96;101690.75;5054575;28;20211;-70
2023/06/03 10:25:34;;;;;;;2.27;1.07;;;;;;;19.09;29.59;101684.34;5077189;28;20191;-70
2023/06/03 10:28:01;;;;;;;3.03;0.90;;;;;;;19.14;29.51;101681.38;5051250;28;20199;-70
2023/06/03 10:30:28;;;;;;;0.93;0.70;;;;;;;19.19;29.02;101683.75;5054422;28;20278;-70
2023/06/03 10:32:58;;;;;;;1.07;0.83;;;;;;;19.18;28.82;101685.66;5050861;28;20223;-70
2023/06/03 10:35:27;;;;;;;0.80;0.70;;;;;;;19.20;28.99;101663.88;5051626;28;20211;-70
2023/06/03 10:37:54;;;;;;;0.70;0.60;;;;;;;19.24;29.25;101670.88;5060458;28;20643;-70
2023/06/03 10:40:21;;;;;;;2.60;1.00;;;;;;;19.35;30.15;101666.47;5038393;28;20222;-70
2023/06/03 10:42:50;;;;;;;1.33;0.80;;;;;;;19.42;29.53;101671.16;5053684;28;20218;-71
2023/06/03 10:45:16;;;;;;;1.30;0.80;;;;;;;19.49;29.39;101666.69;5057051;28;20224;-70
2023/06/03 10:47:45;;;;;;;2.87;0.73;;;;;;;19.54;29.40;101669.06;5054423;28;20551;-70
2023/06/03 10:50:21;;;;;;;1.77;1.07;;;;;;;19.53;29.22;101664.84;5050573;28;20195;-71
2023/06/03 10:53:03;;;;;;;1.43;0.77;;;;;;;19.52;28.69;101659.84;5051580;28;20230;-70
2023/06/03 10:55:36;;;;;;;5.27;2.40;;;;;;;19.53;27.54;101661.38;5047792;28;20679;-70
2023/06/03 10:58:09;;;;;;;1.03;0.60;;;;;;;19.57;29.12;101660.34;5043986;28;20690;-70
2023/06/03 11:00:56;;;;;;;1.30;0.80;;;;;;;19.58;28.18;101663.78;5051711;28;20754;-70
2023/06/03 11:03:24;;;;;;;5.50;2.03;;;;;;;19.59;27.82;101652.69;5048813;28;20226;-71
2023/06/03 11:05:52;;;;;;;1.87;0.90;;;;;;;19.64;28.26;101656.97;5057007;28;20207;-71
2023/06/03 11:09:02;;;;;;;1.23;0.80;;;;;;;19.67;28.66;101651.66;5068955;27;20663;-70
2023/06/03 11:11:58;;;;;;;1.43;0.70;;;;;;;19.70;28.55;101656.31;5070024;28;20382;-70
2023/06/03 11:14:53;;;;;;;1.30;0.83;;;;;;;19.70;28.63;101655.53;5064354;28;20503;-70
2023/06/03 11:17:21;;;;;;;1.70;0.80;;;;;;;19.72;28.73;101662.06;5064363;28;20202;-69
2023/06/03 11:19:49;;;;;;;1.03;0.70;;;;;;;19.65;27.35;101651.25;5063767;28;20220;-70
2023/06/03 11:22:40;;;;;;;3.57;1.00;;;;;;;19.66;29.29;101644.00;5065203;28;20225;-69
2023/06/03 11:25:09;;;;;;;2.53;1.00;;;;;;;19.69;27.54;101649.41;5066892;28;20227;-70
2023/06/03 11:27:36;;;;;;;0.87;0.80;;;;;;;19.74;28.37;101646.41;5064796;28;20289;-69
2023/06/03 11:30:07;;;;;;;2.57;0.80;;;;;;;19.83;28.88;101644.25;5067001;28;20682;-70
2023/06/03 11:32:37;;;;;;;0.87;0.67;;;;;;;19.92;28.70;101644.75;5066411;28;20666;-70
2023/06/03 11:35:29;;;;;;;1.20;0.80;;;;;;;19.97;28.38;101649.03;5062226;28;20255;-69
2023/06/03 11:37:56;;;;;;;1.93;1.40;;;;;;;20.02;27.69;101644.13;5065657;28;20202;-70